sensor_id;sensor_type;location;lat;lon;timestamp;temperature;humidity
33645;DHT22;19986;48.190;16.366;2023-02-01T05:05:09;8.00;99.90
33645;DHT22;19986;48.190;16.366;2023-02-01T05:07:36;8.10;99.90
33645;DHT22;19986;48.190;16.366;2023-02-01T05:10:02;8.00;99.90
33645;DHT22;19986;48.190;16.366;2023-02-01T05:12:27;8.10;99.90
33645;DHT22;19986;48.190;16.366;2023-02-01T05:15:32;8.10;99.90
33645;DHT22;19986;48.190;16.366;2023-02-01T05:18:00;8.10;99.90
33645;DHT22;19986;48.190;16.366;2023-02-01T05:20:26;8.10;99.90
33645;DHT22;19986;48.190;16.366;2023-02-01T05:22:52;8.10;99.90
33645;DHT22;19986;48.190;16.366;2023-02-01T05:25:18;8.20;99.90
33645;DHT22;19986;48.190;16.366;2023-02-01T05:27:44;8.20;99.90
33645;DHT22;19986;48.190;16.366;2023-02-01T05:30:11;8.20;99.90
33645;DHT22;19986;48.190;16.366;2023-02-01T05:32:37;8.20;99.90
33645;DHT22;19986;48.190;16.366;2023-02-01T05:35:03;8.30;99.90
33645;DHT22;19986;48.190;16.366;2023-02-01T05:37:29;8.20;99.90
33645;DHT22;19986;48.190;16.366;2023-02-01T05:39:54;8.20;99.90
33645;DHT22;19986;48.190;16.366;2023-02-01T05:42:20;8.10;99.90
33645;DHT22;19986;48.190;16.366;2023-02-01T05:44:46;8.10;99.90
33645;DHT22;19986;48.190;16.366;2023-02-01T05:47:12;8.10;99.90
33645;DHT22;19986;48.190;16.366;2023-02-01T05:49:38;8.10;99.90
33645;DHT22;19986;48.190;16.366;2023-02-01T05:52:04;8.20;99.90
33645;DHT22;19986;48.190;16.366;2023-02-01T05:54:30;8.20;99.90
33645;DHT22;19986;48.190;16.366;2023-02-01T05:56:56;8.20;99.90
33645;DHT22;19986;48.190;16.366;2023-02-01T05:59:22;8.20;99.90
33645;DHT22;19986;48.190;16.366;2023-02-01T06:01:48;8.30;99.90
33645;DHT22;19986;48.190;16.366;2023-02-01T06:04:14;8.30;99.90
33645;DHT22;19986;48.190;16.366;2023-02-01T06:06:40;8.30;99.90
33645;DHT22;19986;48.190;16.366;2023-02-01T06:09:06;8.30;99.90
33645;DHT22;19986;48.190;16.366;2023-02-01T06:11:32;8.30;99.90
33645;DHT22;19986;48.190;16.366;2023-02-01T06:13:58;8.30;99.90
33645;DHT22;19986;48.190;16.366;2023-02-01T06:16:24;8.20;99.90
33645;DHT22;19986;48.190;16.366;2023-02-01T06:18:49;8.20;99.90
33645;DHT22;19986;48.190;16.366;2023-02-01T06:21:15;8.30;99.90
33645;DHT22;19986;48.190;16.366;2023-02-01T06:23:52;8.20;99.90
33645;DHT22;19986;48.190;16.366;2023-02-01T06:26:19;8.20;99.90
33645;DHT22;19986;48.190;16.366;2023-02-01T06:28:45;8.30;99.90
33645;DHT22;19986;48.190;16.366;2023-02-01T06:31:12;8.30;99.90
33645;DHT22;19986;48.190;16.366;2023-02-01T06:33:38;8.30;99.90
33645;DHT22;19986;48.190;16.366;2023-02-01T06:36:06;8.30;99.90
33645;DHT22;19986;48.190;16.366;2023-02-01T06:38:33;8.30;99.90
33645;DHT22;19986;48.190;16.366;2023-02-01T06:41:00;8.40;99.90
33645;DHT22;19986;48.190;16.366;2023-02-01T06:43:27;8.40;99.90
33645;DHT22;19986;48.190;16.366;2023-02-01T06:45:53;8.50;99.90
33645;DHT22;19986;48.190;16.366;2023-02-01T06:48:24;8.50;99.90
33645;DHT22;19986;48.190;16.366;2023-02-01T06:50:50;8.60;99.90
33645;DHT22;19986;48.190;16.366;2023-02-01T06:53:15;8.60;99.90
33645;DHT22;19986;48.190;16.366;2023-02-01T06:55:41;8.60;99.90
33645;DHT22;19986;48.190;16.366;2023-02-01T06:58:07;8.70;99.90
33645;DHT22;19986;48.190;16.366;2023-02-01T07:00:33;8.70;99.90
33645;DHT22;19986;48.190;16.366;2023-02-01T07:02:59;8.60;99.90
33645;DHT22;19986;48.190;16.366;2023-02-01T07:05:25;8.60;99.90
33645;DHT22;19986;48.190;16.366;2023-02-01T07:07:52;8.60;99.90
33645;DHT22;19986;48.190;16.366;2023-02-01T07:10:18;8.70;99.90
33645;DHT22;19986;48.190;16.366;2023-02-01T07:12:43;8.70;99.90
33645;DHT22;19986;48.190;16.366;2023-02-01T07:15:09;8.70;99.90
33645;DHT22;19986;48.190;16.366;2023-02-01T07:17:35;8.80;99.90
33645;DHT22;19986;48.190;16.366;2023-02-01T07:20:01;8.70;99.90
33645;DHT22;19986;48.190;16.366;2023-02-01T07:22:27;8.70;99.90
33645;DHT22;19986;48.190;16.366;2023-02-01T07:24:53;8.70;99.90
33645;DHT22;19986;48.190;16.366;2023-02-01T07:27:19;8.70;99.90
33645;DHT22;19986;48.190;16.366;2023-02-01T07:29:45;8.70;99.90
33645;DHT22;19986;48.190;16.366;2023-02-01T07:32:11;8.80;99.90
33645;DHT22;19986;48.190;16.366;2023-02-01T07:34:37;8.80;99.90
33645;DHT22;19986;48.190;16.366;2023-02-01T07:37:03;8.80;99.90
33645;DHT22;19986;48.190;16.366;2023-02-01T07:39:29;8.80;99.90
33645;DHT22;19986;48.190;16.366;2023-02-01T07:41:57;8.80;99.90
33645;DHT22;19986;48.190;16.366;2023-02-01T07:44:23;8.80;99.90
33645;DHT22;19986;48.190;16.366;2023-02-01T07:46:49;8.80;99.90
33645;DHT22;19986;48.190;16.366;2023-02-01T07:49:15;8.80;99.90
33645;DHT22;19986;48.190;16.366;2023-02-01T07:51:43;8.80;99.90
33645;DHT22;19986;48.190;16.366;2023-02-01T07:54:09;8.80;99.90
33645;DHT22;19986;48.190;16.366;2023-02-01T07:56:35;8.80;99.90
33645;DHT22;19986;48.190;16.366;2023-02-01T07:59:01;8.90;99.90
33645;DHT22;19986;48.190;16.366;2023-02-01T08:01:28;8.90;99.90
33645;DHT22;19986;48.190;16.366;2023-02-01T08:03:57;8.90;99.90
33645;DHT22;19986;48.190;16.366;2023-02-01T08:06:31;8.90;99.90
33645;DHT22;19986;48.190;16.366;2023-02-01T08:08:57;8.90;99.90
33645;DHT22;19986;48.190;16.366;2023-02-01T08:11:24;8.90;99.90
33645;DHT22;19986;48.190;16.366;2023-02-01T08:13:51;9.00;99.90
33645;DHT22;19986;48.190;16.366;2023-02-01T08:16:19;8.90;99.90
33645;DHT22;19986;48.190;16.366;2023-02-01T08:18:46;8.90;99.90
33645;DHT22;19986;48.190;16.366;2023-02-01T08:21:18;8.90;99.90
33645;DHT22;19986;48.190;16.366;2023-02-01T08:23:46;8.90;99.90
33645;DHT22;19986;48.190;16.366;2023-02-01T08:26:14;9.00;99.90
33645;DHT22;19986;48.190;16.366;2023-02-01T08:28:52;9.00;99.90
33645;DHT22;19986;48.190;16.366;2023-02-01T08:31:21;9.00;99.90
33645;DHT22;19986;48.190;16.366;2023-02-01T08:33:51;9.00;99.90
33645;DHT22;19986;48.190;16.366;2023-02-01T08:36:17;9.00;99.90
33645;DHT22;19986;48.190;16.366;2023-02-01T08:38:43;9.10;99.90
33645;DHT22;19986;48.190;16.366;2023-02-01T08:41:12;9.20;99.90
33645;DHT22;19986;48.190;16.366;2023-02-01T08:43:38;9.30;99.90
33645;DHT22;19986;48.190;16.366;2023-02-01T08:46:05;9.40;99.90
33645;DHT22;19986;48.190;16.366;2023-02-01T08:48:31;9.40;99.90
33645;DHT22;19986;48.190;16.366;2023-02-01T08:51:00;9.40;99.90
33645;DHT22;19986;48.190;16.366;2023-02-01T08:53:26;9.50;99.90
33645;DHT22;19986;48.190;16.366;2023-02-01T08:55:52;9.50;99.90
33645;DHT22;19986;48.190;16.366;2023-02-01T08:58:18;9.40;99.90
33645;DHT22;19986;48.190;16.366;2023-02-01T09:00:45;9.40;99.90
33645;DHT22;19986;48.190;16.366;2023-02-01T09:03:11;9.40;99.90
33645;DHT22;19986;48.190;16.366;2023-02-01T09:05:38;9.40;99.90
33645;DHT22;19986;48.190;16.366;2023-02-01T09:08:06;9.40;99.90
33645;DHT22;19986;48.190;16.366;2023-02-01T09:10:32;9.40;99.90
33645;DHT22;19986;48.190;16.366;2023-02-01T09:12:58;9.40;99.90
33645;DHT22;19986;48.190;16.366;2023-02-01T09:15:24;9.40;99.90
33645;DHT22;19986;48.190;16.366;2023-02-01T09:17:50;9.50;99.90
33645;DHT22;19986;48.190;16.366;2023-02-01T09:20:16;9.50;99.90
33645;DHT22;19986;48.190;16.366;2023-02-01T09:22:42;9.50;99.90
33645;DHT22;19986;48.190;16.366;2023-02-01T09:25:08;9.50;99.90
33645;DHT22;19986;48.190;16.366;2023-02-01T09:27:35;9.40;99.90
33645;DHT22;19986;48.190;16.366;2023-02-01T09:30:01;9.30;99.90
33645;DHT22;19986;48.190;16.366;2023-02-01T09:32:27;9.30;99.90
33645;DHT22;19986;48.190;16.366;2023-02-01T09:34:53;9.40;99.90
33645;DHT22;19986;48.190;16.366;2023-02-01T09:37:20;9.30;99.90
33645;DHT22;19986;48.190;16.366;2023-02-01T09:39:45;9.40;99.90
33645;DHT22;19986;48.190;16.366;2023-02-01T09:43:00;9.40;99.90
33645;DHT22;19986;48.190;16.366;2023-02-01T09:48:33;9.30;99.90
33645;DHT22;19986;48.190;16.366;2023-02-01T09:51:04;9.30;99.90
33645;DHT22;19986;48.190;16.366;2023-02-01T09:53:33;9.20;99.90
33645;DHT22;19986;48.190;16.366;2023-02-01T09:56:05;9.20;99.90
33645;DHT22;19986;48.190;16.366;2023-02-01T09:58:44;9.20;99.90
33645;DHT22;19986;48.190;16.366;2023-02-01T10:01:20;9.20;99.90
33645;DHT22;19986;48.190;16.366;2023-02-01T10:03:48;9.10;99.90
33645;DHT22;19986;48.190;16.366;2023-02-01T10:06:33;9.20;99.90
33645;DHT22;19986;48.190;16.366;2023-02-01T10:09:12;9.20;99.90
33645;DHT22;19986;48.190;16.366;2023-02-01T10:23:50;9.50;99.90
33645;DHT22;19986;48.190;16.366;2023-02-01T10:26:29;9.50;99.90
33645;DHT22;19986;48.190;16.366;2023-02-01T10:29:00;9.50;99.90
33645;DHT22;19986;48.190;16.366;2023-02-01T10:31:31;9.60;99.90
33645;DHT22;19986;48.190;16.366;2023-02-01T10:34:01;9.70;99.90
33645;DHT22;19986;48.190;16.366;2023-02-01T10:36:41;9.70;99.90
33645;DHT22;19986;48.190;16.366;2023-02-01T10:39:11;9.80;99.90
33645;DHT22;19986;48.190;16.366;2023-02-01T10:41:39;9.90;99.90
33645;DHT22;19986;48.190;16.366;2023-02-01T10:44:20;10.00;99.90
33645;DHT22;19986;48.190;16.366;2023-02-01T10:46:49;10.20;99.90
33645;DHT22;19986;48.190;16.366;2023-02-01T10:49:29;10.10;99.90
33645;DHT22;19986;48.190;16.366;2023-02-01T10:52:11;10.20;99.90
33645;DHT22;19986;48.190;16.366;2023-02-01T10:54:38;10.20;99.90
33645;DHT22;19986;48.190;16.366;2023-02-01T10:57:09;10.20;99.90
33645;DHT22;19986;48.190;16.366;2023-02-01T10:59:36;10.10;99.90
33645;DHT22;19986;48.190;16.366;2023-02-01T11:02:16;9.90;99.90
33645;DHT22;19986;48.190;16.366;2023-02-01T11:04:44;9.60;99.90
33645;DHT22;19986;48.190;16.366;2023-02-01T11:09:40;9.40;99.90
33645;DHT22;19986;48.190;16.366;2023-02-01T11:12:25;9.30;99.90
33645;DHT22;19986;48.190;16.366;2023-02-01T11:14:58;9.40;99.90
33645;DHT22;19986;48.190;16.366;2023-02-01T11:17:28;9.70;99.90
33645;DHT22;19986;48.190;16.366;2023-02-01T11:20:04;9.80;99.90
33645;DHT22;19986;48.190;16.366;2023-02-01T11:22:32;9.80;99.90
33645;DHT22;19986;48.190;16.366;2023-02-01T11:24:59;9.70;99.90
33645;DHT22;19986;48.190;16.366;2023-02-01T11:27:27;9.60;99.90
33645;DHT22;19986;48.190;16.366;2023-02-01T11:29:56;9.50;99.90
33645;DHT22;19986;48.190;16.366;2023-02-01T11:32:25;9.40;99.90
33645;DHT22;19986;48.190;16.366;2023-02-01T11:34:55;9.30;99.90
33645;DHT22;19986;48.190;16.366;2023-02-01T11:37:41;9.00;99.90
33645;DHT22;19986;48.190;16.366;2023-02-01T11:43:27;8.60;99.90
33645;DHT22;19986;48.190;16.366;2023-02-01T11:45:57;8.50;99.90
33645;DHT22;19986;48.190;16.366;2023-02-01T11:48:25;8.50;99.90
33645;DHT22;19986;48.190;16.366;2023-02-01T12:15:56;9.00;99.90
33645;DHT22;19986;48.190;16.366;2023-02-01T12:24:11;9.30;99.90
33645;DHT22;19986;48.190;16.366;2023-02-01T12:40:46;9.20;99.90
33645;DHT22;19986;48.190;16.366;2023-02-01T12:45:57;9.70;99.90
33645;DHT22;19986;48.190;16.366;2023-02-01T12:49:05;9.80;99.90
33645;DHT22;19986;48.190;16.366;2023-02-01T12:51:38;9.80;99.90
33645;DHT22;19986;48.190;16.366;2023-02-01T12:57:00;10.10;99.90
33645;DHT22;19986;48.190;16.366;2023-02-01T12:59:31;10.10;99.90
33645;DHT22;19986;48.190;16.366;2023-02-01T13:07:18;9.90;99.90
33645;DHT22;19986;48.190;16.366;2023-02-01T13:12:39;9.70;99.90
33645;DHT22;19986;48.190;16.366;2023-02-01T13:15:30;9.50;99.90
33645;DHT22;19986;48.190;16.366;2023-02-01T13:18:01;9.50;99.90
33645;DHT22;19986;48.190;16.366;2023-02-01T13:20:32;9.60;99.90
33645;DHT22;19986;48.190;16.366;2023-02-01T13:23:30;9.60;99.90
33645;DHT22;19986;48.190;16.366;2023-02-01T13:25:57;9.70;99.90
33645;DHT22;19986;48.190;16.366;2023-02-01T13:34:26;9.80;99.90
33645;DHT22;19986;48.190;16.366;2023-02-01T13:42:50;9.70;99.90
33645;DHT22;19986;48.190;16.366;2023-02-01T13:45:29;9.70;99.90
33645;DHT22;19986;48.190;16.366;2023-02-01T13:47:59;9.70;99.90
33645;DHT22;19986;48.190;16.366;2023-02-01T13:50:39;9.70;99.90
33645;DHT22;19986;48.190;16.366;2023-02-01T13:55:44;9.70;99.90
33645;DHT22;19986;48.190;16.366;2023-02-01T13:58:14;9.60;99.90
33645;DHT22;19986;48.190;16.366;2023-02-01T14:00:42;9.60;99.90
33645;DHT22;19986;48.190;16.366;2023-02-01T14:03:17;9.60;99.90
33645;DHT22;19986;48.190;16.366;2023-02-01T14:08:38;9.50;99.90
33645;DHT22;19986;48.190;16.366;2023-02-01T14:11:04;9.50;99.90
33645;DHT22;19986;48.190;16.366;2023-02-01T14:16:13;9.40;99.90
33645;DHT22;19986;48.190;16.366;2023-02-01T14:21:30;9.30;99.90
33645;DHT22;19986;48.190;16.366;2023-02-01T14:24:17;9.20;99.90
33645;DHT22;19986;48.190;16.366;2023-02-01T14:26:51;9.20;99.90
33645;DHT22;19986;48.190;16.366;2023-02-01T14:29:33;9.20;99.90
33645;DHT22;19986;48.190;16.366;2023-02-01T14:32:17;9.20;99.90
33645;DHT22;19986;48.190;16.366;2023-02-01T14:40:03;9.20;99.90
33645;DHT22;19986;48.190;16.366;2023-02-01T14:47:55;9.00;99.90
33645;DHT22;19986;48.190;16.366;2023-02-01T14:50:46;8.90;99.90
33645;DHT22;19986;48.190;16.366;2023-02-01T14:58:44;8.90;99.90
33645;DHT22;19986;48.190;16.366;2023-02-01T15:04:00;8.70;99.90
33645;DHT22;19986;48.190;16.366;2023-02-01T15:06:36;8.70;99.90
33645;DHT22;19986;48.190;16.366;2023-02-01T15:09:10;8.60;99.90
33645;DHT22;19986;48.190;16.366;2023-02-01T15:14:43;8.50;99.90
33645;DHT22;19986;48.190;16.366;2023-02-01T15:17:21;8.50;99.90
33645;DHT22;19986;48.190;16.366;2023-02-01T15:19:59;8.50;99.90
33645;DHT22;19986;48.190;16.366;2023-02-01T15:22:26;8.40;99.90
33645;DHT22;19986;48.190;16.366;2023-02-01T15:24:58;8.40;99.90
33645;DHT22;19986;48.190;16.366;2023-02-01T15:27:25;8.40;99.90
33645;DHT22;19986;48.190;16.366;2023-02-01T15:29:51;8.40;99.90
33645;DHT22;19986;48.190;16.366;2023-02-01T15:32:31;8.40;99.90
33645;DHT22;19986;48.190;16.366;2023-02-01T15:34:58;8.40;99.90
33645;DHT22;19986;48.190;16.366;2023-02-01T15:37:26;8.50;99.90
33645;DHT22;19986;48.190;16.366;2023-02-01T15:42:55;8.50;99.90
33645;DHT22;19986;48.190;16.366;2023-02-01T15:45:25;8.40;99.90
33645;DHT22;19986;48.190;16.366;2023-02-01T15:47:54;8.40;99.90
33645;DHT22;19986;48.190;16.366;2023-02-01T15:50:20;8.40;99.90
33645;DHT22;19986;48.190;16.366;2023-02-01T15:52:48;8.40;99.90
33645;DHT22;19986;48.190;16.366;2023-02-01T15:55:31;8.40;99.90
33645;DHT22;19986;48.190;16.366;2023-02-01T15:57:59;8.40;99.90
33645;DHT22;19986;48.190;16.366;2023-02-01T16:00:28;8.40;99.90
33645;DHT22;19986;48.190;16.366;2023-02-01T16:03:00;8.40;99.90
33645;DHT22;19986;48.190;16.366;2023-02-01T16:08:16;8.50;99.90
33645;DHT22;19986;48.190;16.366;2023-02-01T16:10:46;8.50;99.90
33645;DHT22;19986;48.190;16.366;2023-02-01T16:13:14;8.50;99.90
33645;DHT22;19986;48.190;16.366;2023-02-01T16:15:40;8.50;99.90
33645;DHT22;19986;48.190;16.366;2023-02-01T16:18:06;8.40;99.90
33645;DHT22;19986;48.190;16.366;2023-02-01T16:20:37;8.40;99.90
33645;DHT22;19986;48.190;16.366;2023-02-01T16:23:04;8.50;99.90
33645;DHT22;19986;48.190;16.366;2023-02-01T16:25:30;8.50;99.90
33645;DHT22;19986;48.190;16.366;2023-02-01T16:27:56;8.60;99.90
33645;DHT22;19986;48.190;16.366;2023-02-01T16:30:22;8.60;99.90
33645;DHT22;19986;48.190;16.366;2023-02-01T16:32:57;8.70;99.90
33645;DHT22;19986;48.190;16.366;2023-02-01T16:35:32;8.70;99.90
33645;DHT22;19986;48.190;16.366;2023-02-01T16:38:14;8.70;99.90
33645;DHT22;19986;48.190;16.366;2023-02-01T16:40:42;8.70;99.90
33645;DHT22;19986;48.190;16.366;2023-02-01T16:43:23;8.70;99.90
33645;DHT22;19986;48.190;16.366;2023-02-01T16:45:51;8.70;99.90
33645;DHT22;19986;48.190;16.366;2023-02-01T16:48:25;8.70;99.90
33645;DHT22;19986;48.190;16.366;2023-02-01T16:50:58;8.70;99.90
33645;DHT22;19986;48.190;16.366;2023-02-01T16:53:27;8.70;99.90
33645;DHT22;19986;48.190;16.366;2023-02-01T16:55:53;8.70;99.90
33645;DHT22;19986;48.190;16.366;2023-02-01T16:58:21;8.70;99.90
33645;DHT22;19986;48.190;16.366;2023-02-01T17:00:47;8.70;99.90
33645;DHT22;19986;48.190;16.366;2023-02-01T17:03:14;8.60;99.90
33645;DHT22;19986;48.190;16.366;2023-02-01T17:05:47;8.60;99.90
33645;DHT22;19986;48.190;16.366;2023-02-01T17:08:17;8.60;99.90
33645;DHT22;19986;48.190;16.366;2023-02-01T17:10:45;8.60;99.90
33645;DHT22;19986;48.190;16.366;2023-02-01T17:13:14;8.60;99.90
33645;DHT22;19986;48.190;16.366;2023-02-01T17:15:52;8.60;99.90
33645;DHT22;19986;48.190;16.366;2023-02-01T17:18:19;8.60;99.90
33645;DHT22;19986;48.190;16.366;2023-02-01T17:20:46;8.60;99.90
33645;DHT22;19986;48.190;16.366;2023-02-01T17:23:14;8.60;99.90
33645;DHT22;19986;48.190;16.366;2023-02-01T17:25:41;8.60;99.90
33645;DHT22;19986;48.190;16.366;2023-02-01T17:28:08;8.60;99.90
33645;DHT22;19986;48.190;16.366;2023-02-01T17:30:34;8.50;99.90
33645;DHT22;19986;48.190;16.366;2023-02-01T17:33:00;8.50;99.90
33645;DHT22;19986;48.190;16.366;2023-02-01T17:35:30;8.60;99.90
33645;DHT22;19986;48.190;16.366;2023-02-01T17:37:57;8.60;99.90
33645;DHT22;19986;48.190;16.366;2023-02-01T17:40:23;8.60;99.90
33645;DHT22;19986;48.190;16.366;2023-02-01T17:42:50;8.50;99.90
33645;DHT22;19986;48.190;16.366;2023-02-01T17:45:26;8.50;99.90
33645;DHT22;19986;48.190;16.366;2023-02-01T17:47:53;8.50;99.90
33645;DHT22;19986;48.190;16.366;2023-02-01T17:50:19;8.60;99.90
33645;DHT22;19986;48.190;16.366;2023-02-01T17:52:46;8.50;99.90
33645;DHT22;19986;48.190;16.366;2023-02-01T17:55:19;8.50;99.90
33645;DHT22;19986;48.190;16.366;2023-02-01T17:57:48;8.40;99.90
33645;DHT22;19986;48.190;16.366;2023-02-01T18:00:15;8.40;99.90
33645;DHT22;19986;48.190;16.366;2023-02-01T18:02:42;8.40;99.90
33645;DHT22;19986;48.190;16.366;2023-02-01T18:05:54;8.40;99.90
33645;DHT22;19986;48.190;16.366;2023-02-01T18:08:23;8.40;99.90
33645;DHT22;19986;48.190;16.366;2023-02-01T18:10:55;8.40;99.90
33645;DHT22;19986;48.190;16.366;2023-02-01T18:13:24;8.40;99.90
33645;DHT22;19986;48.190;16.366;2023-02-01T18:15:51;8.50;99.90
33645;DHT22;19986;48.190;16.366;2023-02-01T18:18:17;8.40;99.90
33645;DHT22;19986;48.190;16.366;2023-02-01T18:20:44;8.50;99.90
33645;DHT22;19986;48.190;16.366;2023-02-01T18:23:19;8.50;99.90
33645;DHT22;19986;48.190;16.366;2023-02-01T18:25:46;8.50;99.90
33645;DHT22;19986;48.190;16.366;2023-02-01T18:28:14;8.40;99.90
33645;DHT22;19986;48.190;16.366;2023-02-01T18:30:41;8.40;99.90
33645;DHT22;19986;48.190;16.366;2023-02-01T18:33:11;8.40;99.90
33645;DHT22;19986;48.190;16.366;2023-02-01T18:35:37;8.40;99.90
33645;DHT22;19986;48.190;16.366;2023-02-01T18:38:04;8.50;99.90
33645;DHT22;19986;48.190;16.366;2023-02-01T18:40:52;8.60;99.90
33645;DHT22;19986;48.190;16.366;2023-02-01T18:43:20;8.60;99.90
33645;DHT22;19986;48.190;16.366;2023-02-01T18:45:47;8.60;99.90
33645;DHT22;19986;48.190;16.366;2023-02-01T18:48:16;8.70;99.90
33645;DHT22;19986;48.190;16.366;2023-02-01T18:50:46;8.70;99.90
33645;DHT22;19986;48.190;16.366;2023-02-01T18:53:15;8.70;99.90
33645;DHT22;19986;48.190;16.366;2023-02-01T18:55:48;8.70;99.90
33645;DHT22;19986;48.190;16.366;2023-02-01T18:58:16;8.70;99.90
33645;DHT22;19986;48.190;16.366;2023-02-01T19:00:43;8.70;99.90
33645;DHT22;19986;48.190;16.366;2023-02-01T19:03:11;8.70;99.90
33645;DHT22;19986;48.190;16.366;2023-02-01T19:05:37;8.70;99.90
33645;DHT22;19986;48.190;16.366;2023-02-01T19:08:04;8.50;99.90
33645;DHT22;19986;48.190;16.366;2023-02-01T19:10:43;8.50;99.90
33645;DHT22;19986;48.190;16.366;2023-02-01T19:13:16;8.50;99.90
33645;DHT22;19986;48.190;16.366;2023-02-01T19:15:45;8.50;99.90
33645;DHT22;19986;48.190;16.366;2023-02-01T19:18:12;8.40;99.90
33645;DHT22;19986;48.190;16.366;2023-02-01T19:20:39;8.30;99.90
33645;DHT22;19986;48.190;16.366;2023-02-01T19:23:10;8.40;99.90
33645;DHT22;19986;48.190;16.366;2023-02-01T19:25:37;8.30;99.90
33645;DHT22;19986;48.190;16.366;2023-02-01T19:28:04;8.30;99.90
33645;DHT22;19986;48.190;16.366;2023-02-01T19:30:31;8.20;99.90
33645;DHT22;19986;48.190;16.366;2023-02-01T19:32:57;8.20;99.90
33645;DHT22;19986;48.190;16.366;2023-02-01T19:35:23;8.10;99.90
33645;DHT22;19986;48.190;16.366;2023-02-01T19:37:50;8.00;99.90
33645;DHT22;19986;48.190;16.366;2023-02-01T19:40:19;8.00;99.90
33645;DHT22;19986;48.190;16.366;2023-02-01T19:42:47;8.10;99.90
33645;DHT22;19986;48.190;16.366;2023-02-01T19:45:15;8.10;99.90
33645;DHT22;19986;48.190;16.366;2023-02-01T19:47:42;8.20;99.90
33645;DHT22;19986;48.190;16.366;2023-02-01T19:50:16;8.20;99.90
33645;DHT22;19986;48.190;16.366;2023-02-01T19:52:43;8.30;99.90
33645;DHT22;19986;48.190;16.366;2023-02-01T19:55:12;8.20;99.90
33645;DHT22;19986;48.190;16.366;2023-02-01T19:57:39;8.20;99.90
33645;DHT22;19986;48.190;16.366;2023-02-01T20:00:06;8.30;99.90
33645;DHT22;19986;48.190;16.366;2023-02-01T20:02:33;8.20;99.90
33645;DHT22;19986;48.190;16.366;2023-02-01T20:04:59;8.30;99.90
33645;DHT22;19986;48.190;16.366;2023-02-01T20:07:26;8.30;99.90
33645;DHT22;19986;48.190;16.366;2023-02-01T20:09:52;8.30;99.90
33645;DHT22;19986;48.190;16.366;2023-02-01T20:12:19;8.30;99.90
33645;DHT22;19986;48.190;16.366;2023-02-01T20:14:46;8.30;99.90
33645;DHT22;19986;48.190;16.366;2023-02-01T20:17:14;8.40;99.90
33645;DHT22;19986;48.190;16.366;2023-02-01T20:19:41;8.40;99.90
33645;DHT22;19986;48.190;16.366;2023-02-01T20:22:07;8.40;99.90
33645;DHT22;19986;48.190;16.366;2023-02-01T20:24:33;8.40;99.90
33645;DHT22;19986;48.190;16.366;2023-02-01T20:27:00;8.50;99.90
33645;DHT22;19986;48.190;16.366;2023-02-01T20:29:26;8.40;99.90
33645;DHT22;19986;48.190;16.366;2023-02-01T20:31:53;8.50;99.90
33645;DHT22;19986;48.190;16.366;2023-02-01T20:34:20;8.50;99.90
33645;DHT22;19986;48.190;16.366;2023-02-01T20:36:47;8.50;99.90
33645;DHT22;19986;48.190;16.366;2023-02-01T20:39:14;8.50;99.90
33645;DHT22;19986;48.190;16.366;2023-02-01T20:41:40;8.40;99.90
33645;DHT22;19986;48.190;16.366;2023-02-01T20:44:09;8.40;99.90
33645;DHT22;19986;48.190;16.366;2023-02-01T20:46:35;8.40;99.90
33645;DHT22;19986;48.190;16.366;2023-02-01T20:49:01;8.40;99.90
33645;DHT22;19986;48.190;16.366;2023-02-01T20:51:28;8.40;99.90
33645;DHT22;19986;48.190;16.366;2023-02-01T20:53:56;8.50;99.90
33645;DHT22;19986;48.190;16.366;2023-02-01T20:56:22;8.50;99.90
33645;DHT22;19986;48.190;16.366;2023-02-01T20:58:50;8.60;99.90
